createdAt,value
2022-11-30T00:01:40.921Z,5.00
2022-11-30T00:04:13.714Z,4.97
2022-11-30T00:06:46.224Z,4.98
2022-11-30T00:09:18.767Z,4.99
2022-11-30T00:11:51.361Z,5.03
2022-11-30T00:14:23.869Z,5.00
2022-11-30T00:16:56.432Z,4.98
2022-11-30T00:19:27.550Z,4.98
2022-11-30T00:22:00.090Z,4.95
2022-11-30T00:24:32.678Z,4.94
2022-11-30T00:27:05.137Z,4.92
2022-11-30T00:29:37.638Z,4.90
2022-11-30T00:32:10.302Z,4.90
2022-11-30T00:34:42.894Z,4.92
2022-11-30T00:37:15.450Z,4.97
2022-11-30T00:39:47.942Z,4.96
2022-11-30T00:42:20.517Z,4.97
2022-11-30T00:44:53.093Z,4.98
2022-11-30T00:47:25.657Z,4.97
2022-11-30T00:49:58.145Z,4.94
2022-11-30T00:52:31.436Z,4.88
2022-11-30T00:55:04.511Z,4.87
2022-11-30T00:57:37.092Z,4.92
2022-11-30T01:00:12.075Z,4.96
2022-11-30T01:02:45.211Z,4.95
2022-11-30T01:05:18.001Z,4.94
2022-11-30T01:07:50.995Z,4.95
2022-11-30T01:10:23.085Z,5.02
2022-11-30T01:12:56.482Z,5.07
2022-11-30T01:15:29.183Z,5.07
2022-11-30T01:18:03.206Z,5.05
2022-11-30T01:20:35.841Z,5.05
2022-11-30T01:23:08.552Z,5.05
2022-11-30T01:25:42.791Z,5.07
2022-11-30T01:28:15.399Z,5.09
2022-11-30T01:30:47.966Z,5.09
2022-11-30T01:33:19.009Z,5.08
2022-11-30T01:35:51.595Z,5.03
2022-11-30T01:38:24.179Z,5.01
2022-11-30T01:40:56.870Z,4.95
2022-11-30T01:43:42.177Z,4.90
2022-11-30T01:46:27.972Z,4.89
2022-11-30T01:49:06.835Z,4.85
2022-11-30T01:51:42.344Z,4.80
2022-11-30T01:54:18.991Z,4.79
2022-11-30T01:56:54.438Z,4.77
2022-11-30T01:59:28.134Z,4.76
2022-11-30T02:02:00.826Z,4.73
2022-11-30T02:04:36.219Z,4.74
2022-11-30T02:07:10.469Z,4.73
2022-11-30T02:09:45.905Z,4.70
2022-11-30T02:12:24.757Z,4.69
2022-11-30T02:14:59.874Z,4.71
2022-11-30T02:17:41.115Z,4.69
2022-11-30T02:20:36.492Z,4.68
2022-11-30T02:23:28.284Z,4.64
2022-11-30T02:26:08.421Z,4.60
2022-11-30T02:29:04.469Z,4.62
2022-11-30T02:31:41.951Z,4.69
2022-11-30T02:34:17.267Z,4.74
2022-11-30T02:36:51.207Z,4.74
2022-11-30T02:39:24.691Z,4.68
2022-11-30T02:41:57.287Z,4.66
2022-11-30T02:44:31.546Z,4.68
2022-11-30T02:47:16.028Z,4.67
2022-11-30T02:49:53.234Z,4.71
2022-11-30T02:52:28.661Z,4.74
2022-11-30T02:55:06.373Z,4.75
2022-11-30T02:57:39.602Z,4.78
2022-11-30T03:00:14.583Z,4.84
2022-11-30T03:02:47.261Z,4.89
2022-11-30T03:05:20.191Z,4.94
2022-11-30T03:07:51.060Z,5.01
2022-11-30T03:10:23.981Z,5.03
2022-11-30T03:13:00.413Z,5.03
2022-11-30T03:15:33.115Z,5.11
2022-11-30T03:18:06.778Z,5.23
2022-11-30T03:20:43.354Z,5.31
2022-11-30T03:23:16.023Z,5.34
2022-11-30T03:25:48.869Z,5.24
2022-11-30T03:28:19.811Z,5.07
2022-11-30T03:30:53.156Z,4.98
2022-11-30T03:33:25.830Z,4.89
2022-11-30T03:36:04.113Z,4.86
2022-11-30T03:38:36.783Z,4.83
2022-11-30T03:41:12.102Z,4.84
2022-11-30T03:43:45.048Z,4.84
2022-11-30T03:46:17.936Z,4.87
2022-11-30T03:48:48.976Z,4.85
2022-11-30T03:51:21.570Z,4.87
2022-11-30T03:53:54.228Z,4.86
2022-11-30T03:56:26.875Z,4.80
2022-11-30T03:58:59.454Z,4.70
2022-11-30T04:01:32.058Z,4.64
2022-11-30T04:04:04.735Z,4.63
2022-11-30T04:06:37.391Z,4.66
2022-11-30T04:09:10.120Z,4.65
2022-11-30T04:11:42.766Z,4.65
2022-11-30T04:14:15.421Z,4.64
2022-11-30T04:16:47.953Z,4.66
2022-11-30T04:19:20.667Z,4.68
2022-11-30T04:21:53.316Z,4.67
2022-11-30T04:24:25.971Z,4.66
2022-11-30T04:26:58.624Z,4.64
2022-11-30T04:29:31.592Z,4.63
2022-11-30T04:32:04.215Z,4.63
2022-11-30T04:34:37.036Z,4.63
2022-11-30T04:37:09.561Z,4.65
2022-11-30T04:39:42.116Z,4.65
2022-11-30T04:42:14.660Z,4.66
2022-11-30T04:44:47.427Z,4.65
2022-11-30T04:47:20.402Z,4.62
2022-11-30T04:49:53.053Z,4.61
2022-11-30T04:52:25.636Z,4.65
2022-11-30T04:54:58.089Z,4.66
2022-11-30T04:57:30.543Z,4.67
2022-11-30T05:00:03.178Z,4.67
2022-11-30T05:02:35.627Z,4.70
2022-11-30T05:05:09.573Z,4.68
2022-11-30T05:07:42.323Z,4.64
2022-11-30T05:10:15.377Z,4.61
2022-11-30T05:12:47.964Z,4.59
2022-11-30T05:15:20.670Z,4.57
2022-11-30T05:17:53.969Z,4.59
2022-11-30T05:20:28.207Z,4.60
2022-11-30T05:23:05.124Z,4.57
2022-11-30T05:25:38.013Z,4.58
2022-11-30T05:28:08.858Z,4.62
2022-11-30T05:30:42.636Z,4.64
2022-11-30T05:33:15.347Z,4.67
2022-11-30T05:35:47.981Z,4.66
2022-11-30T05:38:19.022Z,4.59
2022-11-30T05:40:51.705Z,4.57
2022-11-30T05:43:24.387Z,4.55
2022-11-30T05:46:02.438Z,4.52
2022-11-30T05:48:35.125Z,4.52
2022-11-30T05:51:12.792Z,4.52
2022-11-30T05:53:45.370Z,4.48
2022-11-30T05:56:19.964Z,4.43
2022-11-30T05:58:52.528Z,4.44
2022-11-30T06:01:27.619Z,4.51
2022-11-30T06:04:02.531Z,4.52
2022-11-30T06:06:37.221Z,4.51
2022-11-30T06:09:09.777Z,4.51
2022-11-30T06:11:42.221Z,4.47
2022-11-30T06:14:14.697Z,4.45
2022-11-30T06:16:47.521Z,4.44
2022-11-30T06:19:18.312Z,4.47
2022-11-30T06:21:50.872Z,4.46
2022-11-30T06:24:23.297Z,4.44
2022-11-30T06:26:55.774Z,4.41
2022-11-30T06:29:28.416Z,4.39
2022-11-30T06:32:01.387Z,4.33
2022-11-30T06:34:34.800Z,4.33
2022-11-30T06:37:07.512Z,4.39
2022-11-30T06:40:06.044Z,4.45
2022-11-30T06:42:59.280Z,4.44
2022-11-30T06:45:32.045Z,4.53
2022-11-30T06:48:04.782Z,4.51
2022-11-30T06:50:37.360Z,4.52
2022-11-30T06:53:10.191Z,4.51
2022-11-30T06:55:43.074Z,4.50
2022-11-30T06:58:13.930Z,4.52
2022-11-30T07:00:46.762Z,4.51
2022-11-30T07:03:19.780Z,4.54
2022-11-30T07:05:50.753Z,4.59
2022-11-30T07:08:23.468Z,4.62
2022-11-30T07:10:56.252Z,4.61
2022-11-30T07:13:28.877Z,4.60
2022-11-30T07:16:01.899Z,4.64
2022-11-30T07:18:35.002Z,4.68
2022-11-30T07:21:09.039Z,4.73
2022-11-30T07:23:59.530Z,4.78
2022-11-30T07:26:32.150Z,4.82
2022-11-30T07:29:05.491Z,4.81
2022-11-30T07:31:39.250Z,4.83
2022-11-30T07:34:13.528Z,4.88
2022-11-30T07:36:46.630Z,4.92
2022-11-30T07:39:19.266Z,4.93
2022-11-30T07:41:51.898Z,4.96
2022-11-30T07:44:24.477Z,4.90
2022-11-30T07:46:56.921Z,4.87
2022-11-30T07:49:29.554Z,4.85
2022-11-30T07:52:04.291Z,4.81
2022-11-30T07:54:36.973Z,4.75
2022-11-30T07:57:09.585Z,4.68
2022-11-30T07:59:42.146Z,4.67
2022-11-30T08:02:14.829Z,4.68
2022-11-30T08:04:47.976Z,4.66
2022-11-30T08:07:22.485Z,4.64
2022-11-30T08:09:55.110Z,4.68
2022-11-30T08:12:27.543Z,4.70
2022-11-30T08:15:24.942Z,4.73
2022-11-30T08:17:55.329Z,4.72
2022-11-30T08:20:27.897Z,4.70
2022-11-30T08:22:59.581Z,4.75
2022-11-30T08:25:32.153Z,4.76
2022-11-30T08:28:04.931Z,4.76
2022-11-30T08:30:37.688Z,4.81
2022-11-30T08:33:08.559Z,4.87
2022-11-30T08:35:41.979Z,4.92
2022-11-30T08:38:14.620Z,4.94
2022-11-30T08:40:47.165Z,5.02
2022-11-30T08:43:19.751Z,5.10
2022-11-30T08:45:54.470Z,5.19
2022-11-30T08:48:29.929Z,5.17
2022-11-30T08:51:04.758Z,5.12
2022-11-30T08:53:37.537Z,5.09
2022-11-30T08:56:09.894Z,5.04
2022-11-30T08:58:42.735Z,4.98
2022-11-30T09:01:14.759Z,4.91
2022-11-30T09:03:49.131Z,4.89
2022-11-30T09:06:23.471Z,4.90
2022-11-30T09:08:58.151Z,4.91
2022-11-30T09:11:33.077Z,4.94
2022-11-30T09:14:07.106Z,5.01
2022-11-30T09:16:40.253Z,5.07
2022-11-30T09:19:13.134Z,5.14
2022-11-30T09:21:51.539Z,5.19
2022-11-30T09:24:26.524Z,5.22
2022-11-30T09:27:00.368Z,5.25
2022-11-30T09:29:33.040Z,5.29
2022-11-30T09:32:05.870Z,5.30
2022-11-30T09:34:36.900Z,5.27
2022-11-30T09:37:10.860Z,5.20
2022-11-30T09:39:43.425Z,5.13
2022-11-30T09:42:33.455Z,5.10
2022-11-30T09:45:12.306Z,5.04
2022-11-30T09:48:06.995Z,5.07
2022-11-30T09:50:42.867Z,5.14
2022-11-30T09:53:29.653Z,5.19
2022-11-30T09:56:03.425Z,5.26
2022-11-30T09:58:45.333Z,5.36
2022-11-30T10:01:20.257Z,5.44
2022-11-30T10:03:53.888Z,5.45
2022-11-30T10:06:32.746Z,5.45
2022-11-30T10:09:15.725Z,5.47
2022-11-30T10:11:55.149Z,5.46
2022-11-30T10:14:41.740Z,5.45
2022-11-30T10:17:23.100Z,5.40
2022-11-30T10:20:09.970Z,5.38
2022-11-30T10:22:57.218Z,5.40
2022-11-30T10:25:34.734Z,5.38
2022-11-30T10:28:45.598Z,5.36
2022-11-30T10:31:16.599Z,5.34
2022-11-30T10:33:52.021Z,5.36
2022-11-30T10:36:29.359Z,5.37
2022-11-30T10:39:04.977Z,5.35
2022-11-30T10:41:41.429Z,5.37
2022-11-30T10:44:18.249Z,5.34
2022-11-30T10:46:57.090Z,5.31
2022-11-30T10:49:36.082Z,5.31
2022-11-30T10:52:14.706Z,5.36
2022-11-30T10:54:48.032Z,5.41
2022-11-30T10:57:26.341Z,5.37
2022-11-30T11:00:12.504Z,5.28
2022-11-30T11:02:50.953Z,5.24
2022-11-30T11:05:26.406Z,5.22
2022-11-30T11:08:07.101Z,5.23
2022-11-30T11:10:46.663Z,5.28
2022-11-30T11:13:22.034Z,5.35
2022-11-30T11:16:02.108Z,5.41
2022-11-30T11:18:39.975Z,5.45
2022-11-30T11:21:21.788Z,5.44
2022-11-30T11:23:58.478Z,5.50
2022-11-30T11:26:32.119Z,5.50
2022-11-30T11:29:05.759Z,5.46
2022-11-30T11:31:44.280Z,5.46
2022-11-30T11:34:27.037Z,5.49
2022-11-30T11:37:13.107Z,5.49
2022-11-30T11:39:47.057Z,5.52
2022-11-30T11:42:22.605Z,5.52
2022-11-30T11:44:56.971Z,5.55
2022-11-30T11:47:30.973Z,5.55
2022-11-30T11:53:41.366Z,5.48
2022-11-30T11:56:25.587Z,5.49
2022-11-30T11:59:02.419Z,5.46
2022-11-30T12:01:46.451Z,5.46
2022-11-30T12:04:34.569Z,5.47
2022-11-30T12:07:19.189Z,5.58
2022-11-30T12:10:49.453Z,5.64
2022-11-30T12:13:13.381Z,5.59
2022-11-30T12:15:53.673Z,5.57
2022-11-30T12:18:28.980Z,5.58
2022-11-30T12:21:04.218Z,5.55
2022-11-30T12:24:15.888Z,5.59
2022-11-30T12:26:50.744Z,5.69
2022-11-30T12:29:29.973Z,5.77
2022-11-30T12:32:21.745Z,5.78
2022-11-30T12:35:04.874Z,5.72
2022-11-30T12:37:47.493Z,5.65
2022-11-30T12:40:23.381Z,5.64
2022-11-30T12:43:01.358Z,5.67
2022-11-30T12:45:36.936Z,5.62
2022-11-30T12:48:19.504Z,5.55
2022-11-30T12:51:02.212Z,5.47
2022-11-30T12:53:47.282Z,5.43
2022-11-30T12:56:33.738Z,5.40
2022-11-30T12:59:20.015Z,5.39
2022-11-30T13:02:04.466Z,5.40
2022-11-30T13:04:41.188Z,5.45
2022-11-30T13:07:21.353Z,5.51
2022-11-30T13:09:57.350Z,5.57
2022-11-30T13:12:36.466Z,5.59
2022-11-30T13:15:15.925Z,5.61
2022-11-30T13:17:49.822Z,5.65
2022-11-30T13:20:27.259Z,5.67
2022-11-30T13:23:03.738Z,5.68
2022-11-30T13:28:46.379Z,5.65
2022-11-30T13:31:23.184Z,5.54
2022-11-30T13:34:02.284Z,5.47
2022-11-30T13:36:38.351Z,5.42
2022-11-30T13:39:26.239Z,5.42
2022-11-30T13:42:25.863Z,5.43
2022-11-30T13:44:58.552Z,5.43
2022-11-30T13:47:34.541Z,5.36
2022-11-30T13:50:10.622Z,5.33
2022-11-30T13:53:35.231Z,5.29
2022-11-30T13:56:10.436Z,5.20
2022-11-30T13:59:22.784Z,5.20
2022-11-30T14:05:25.798Z,5.14
2022-11-30T14:08:30.787Z,5.06
2022-11-30T14:11:44.183Z,5.10
2022-11-30T14:14:47.099Z,5.09
2022-11-30T14:17:24.629Z,5.10
2022-11-30T14:20:01.540Z,5.11
2022-11-30T14:22:34.204Z,5.21
2022-11-30T14:25:15.406Z,5.30
2022-11-30T14:27:48.624Z,5.35
2022-11-30T14:30:22.963Z,5.37
2022-11-30T14:33:01.290Z,5.43
2022-11-30T14:35:34.190Z,5.49
2022-11-30T14:38:04.992Z,5.52
2022-11-30T14:40:38.008Z,5.48
2022-11-30T14:43:19.195Z,5.44
2022-11-30T14:46:05.677Z,5.35
2022-11-30T14:48:40.733Z,5.21
2022-11-30T14:51:14.424Z,5.14
2022-11-30T14:53:53.382Z,5.10
2022-11-30T14:56:30.993Z,5.11
2022-11-30T14:59:11.377Z,5.12
2022-11-30T15:01:44.024Z,5.12
2022-11-30T15:04:18.796Z,5.08
2022-11-30T15:06:51.314Z,5.07
2022-11-30T15:09:26.099Z,5.08
2022-11-30T15:12:00.283Z,5.06
2022-11-30T15:14:32.912Z,5.01
2022-11-30T15:17:14.239Z,5.02
2022-11-30T15:19:50.251Z,5.00
2022-11-30T15:22:25.389Z,4.96
2022-11-30T15:24:58.113Z,4.94
2022-11-30T15:27:30.714Z,4.93
2022-11-30T15:30:03.600Z,4.94
2022-11-30T15:32:35.936Z,4.92
2022-11-30T15:35:17.988Z,4.89
2022-11-30T15:37:50.862Z,4.82
2022-11-30T15:40:27.408Z,4.79
2022-11-30T15:43:00.373Z,4.76
2022-11-30T15:45:35.417Z,4.73
2022-11-30T15:48:29.849Z,4.71
2022-11-30T15:51:02.732Z,4.67
2022-11-30T15:53:49.990Z,4.66
2022-11-30T15:56:30.287Z,4.63
2022-11-30T15:59:08.208Z,4.60
2022-11-30T16:02:06.287Z,4.55
2022-11-30T16:05:20.989Z,4.55
2022-11-30T16:07:57.419Z,4.60
2022-11-30T16:10:34.291Z,4.58
2022-11-30T16:13:08.305Z,4.56
2022-11-30T16:15:42.911Z,4.48
2022-11-30T16:18:17.860Z,4.41
2022-11-30T16:20:55.014Z,4.36
2022-11-30T16:23:28.457Z,4.36
2022-11-30T16:26:01.048Z,4.37
2022-11-30T16:28:33.821Z,4.35
2022-11-30T16:31:06.990Z,4.32
2022-11-30T16:33:39.578Z,4.29
2022-11-30T16:36:17.920Z,4.26
2022-11-30T16:38:53.835Z,4.29
2022-11-30T16:41:27.519Z,4.34
2022-11-30T16:44:01.344Z,4.37
2022-11-30T16:46:34.017Z,4.34
2022-11-30T16:49:06.663Z,4.31
2022-11-30T16:51:41.996Z,4.27
2022-11-30T16:54:16.433Z,4.26
2022-11-30T16:56:48.940Z,4.30
2022-11-30T16:59:21.475Z,4.32
2022-11-30T17:01:55.193Z,4.28
2022-11-30T17:04:29.761Z,4.19
2022-11-30T17:07:03.148Z,4.15
2022-11-30T17:09:36.481Z,4.14
2022-11-30T17:12:10.539Z,4.10
2022-11-30T17:14:44.537Z,4.09
2022-11-30T17:17:17.483Z,4.07
2022-11-30T17:19:50.365Z,4.06
2022-11-30T17:22:23.129Z,4.08
2022-11-30T17:24:54.036Z,4.08
2022-11-30T17:27:26.443Z,4.04
2022-11-30T17:29:58.918Z,3.98
2022-11-30T17:32:32.012Z,3.95
2022-11-30T17:35:04.598Z,3.91
2022-11-30T17:37:37.237Z,3.89
2022-11-30T17:40:16.315Z,3.87
2022-11-30T17:42:48.844Z,3.88
2022-11-30T17:45:23.348Z,3.90
2022-11-30T17:47:56.045Z,3.86
2022-11-30T17:50:28.525Z,3.87
2022-11-30T17:53:01.120Z,3.89
2022-11-30T17:55:34.405Z,3.81
2022-11-30T17:58:06.946Z,3.74
2022-11-30T18:00:40.445Z,3.74
2022-11-30T18:03:13.028Z,3.78
2022-11-30T18:05:45.645Z,3.78
2022-11-30T18:08:20.082Z,3.80
2022-11-30T18:10:53.225Z,3.82
2022-11-30T18:13:26.252Z,3.82
2022-11-30T18:16:09.594Z,3.80
2022-11-30T18:18:48.086Z,3.76
2022-11-30T18:21:24.499Z,3.71
2022-11-30T18:23:58.473Z,3.66
2022-11-30T18:26:31.121Z,3.68
2022-11-30T18:29:04.265Z,3.64
2022-11-30T18:31:38.088Z,3.62
2022-11-30T18:34:11.732Z,3.63
2022-11-30T18:36:44.321Z,3.64
2022-11-30T18:39:17.056Z,3.59
2022-11-30T18:41:48.192Z,3.54
2022-11-30T18:44:20.820Z,3.50
2022-11-30T18:46:53.552Z,3.49
2022-11-30T18:49:26.574Z,3.49
2022-11-30T18:51:57.518Z,3.52
2022-11-30T18:54:31.753Z,3.50
2022-11-30T18:57:04.446Z,3.48
2022-11-30T18:59:37.195Z,3.47
2022-11-30T19:02:12.058Z,3.46
2022-11-30T19:04:45.664Z,3.43
2022-11-30T19:07:18.685Z,3.39
2022-11-30T19:09:51.631Z,3.36
2022-11-30T19:12:22.644Z,3.37
2022-11-30T19:14:56.119Z,3.37
2022-11-30T19:17:33.627Z,3.40
2022-11-30T19:20:07.509Z,3.43
2022-11-30T19:22:44.403Z,3.46
2022-11-30T19:25:19.159Z,3.47
2022-11-30T19:27:52.321Z,3.45
2022-11-30T19:30:27.149Z,3.44
2022-11-30T19:32:59.890Z,3.45
2022-11-30T19:35:32.794Z,3.45
2022-11-30T19:38:06.013Z,3.44
2022-11-30T19:40:42.613Z,3.44
2022-11-30T19:43:18.323Z,3.44
2022-11-30T19:45:54.122Z,3.41
2022-11-30T19:48:31.597Z,3.37
2022-11-30T19:51:13.503Z,3.36
2022-11-30T19:54:01.039Z,3.31
2022-11-30T19:56:36.660Z,3.32
2022-11-30T19:59:10.635Z,3.34
2022-11-30T20:01:43.673Z,3.37
2022-11-30T20:04:16.327Z,3.33
2022-11-30T20:06:49.092Z,3.31
2022-11-30T20:09:20.062Z,3.31
2022-11-30T20:11:52.875Z,3.31
2022-11-30T20:14:23.862Z,3.34
2022-11-30T20:16:56.476Z,3.34
2022-11-30T20:19:29.105Z,3.35
2022-11-30T20:22:04.939Z,3.35
2022-11-30T20:24:38.129Z,3.35
2022-11-30T20:27:13.524Z,3.34
2022-11-30T20:29:46.249Z,3.32
2022-11-30T20:32:19.460Z,3.33
2022-11-30T20:34:52.227Z,3.37
2022-11-30T20:37:25.859Z,3.35
2022-11-30T20:39:58.405Z,3.29
2022-11-30T20:42:31.877Z,3.24
2022-11-30T20:45:05.822Z,3.21
2022-11-30T20:47:38.510Z,3.16
2022-11-30T20:50:12.670Z,3.14
2022-11-30T20:52:45.304Z,3.14
2022-11-30T20:55:18.018Z,3.16
2022-11-30T20:57:51.583Z,3.16
2022-11-30T21:00:24.745Z,3.20
2022-11-30T21:02:57.751Z,3.25
2022-11-30T21:05:31.800Z,3.28
2022-11-30T21:08:06.320Z,3.28
2022-11-30T21:10:42.299Z,3.28
2022-11-30T21:13:15.393Z,3.22
2022-11-30T21:15:48.248Z,3.21
2022-11-30T21:18:21.171Z,3.22
2022-11-30T21:20:52.506Z,3.20
2022-11-30T21:23:27.993Z,3.16
2022-11-30T21:26:06.053Z,3.12
2022-11-30T21:28:39.259Z,3.10
2022-11-30T21:31:12.561Z,3.03
2022-11-30T21:33:52.408Z,2.98
2022-11-30T21:36:26.574Z,2.95
2022-11-30T21:39:05.696Z,2.93
2022-11-30T21:41:41.479Z,2.89
2022-11-30T21:44:16.192Z,2.88
2022-11-30T21:46:49.487Z,2.88
2022-11-30T21:49:25.026Z,2.91
2022-11-30T21:51:55.803Z,2.93
2022-11-30T21:54:28.497Z,2.90
2022-11-30T21:57:00.936Z,2.85
2022-11-30T21:59:34.076Z,2.81
2022-11-30T22:02:06.901Z,2.85
2022-11-30T22:04:41.590Z,2.90
2022-11-30T22:07:15.653Z,2.89
2022-11-30T22:09:48.522Z,2.94
2022-11-30T22:12:21.849Z,2.97
2022-11-30T22:14:52.813Z,3.00
2022-11-30T22:17:25.299Z,3.00
2022-11-30T22:19:57.739Z,3.01
2022-11-30T22:22:32.601Z,2.95
2022-11-30T22:25:05.301Z,2.93
2022-11-30T22:27:40.507Z,2.91
2022-11-30T22:30:14.902Z,2.89
2022-11-30T22:32:50.726Z,2.89
2022-11-30T22:35:23.223Z,2.87
2022-11-30T22:37:58.557Z,2.82
2022-11-30T22:40:31.076Z,2.78
2022-11-30T22:43:03.574Z,2.77
2022-11-30T22:45:37.539Z,2.83
2022-11-30T22:48:12.448Z,2.86
2022-11-30T22:50:46.261Z,2.91
2022-11-30T22:53:18.690Z,2.96
2022-11-30T22:55:54.808Z,2.94
2022-11-30T22:58:27.969Z,2.86
2022-11-30T23:01:10.826Z,2.77
2022-11-30T23:03:44.422Z,2.80
2022-11-30T23:06:21.102Z,2.82
2022-11-30T23:08:54.590Z,2.82
2022-11-30T23:11:31.012Z,2.81
2022-11-30T23:14:08.424Z,2.83
2022-11-30T23:16:48.263Z,2.90
2022-11-30T23:19:26.990Z,2.95
2022-11-30T23:21:59.642Z,2.97
2022-11-30T23:24:36.823Z,2.97
2022-11-30T23:27:09.454Z,2.98
2022-11-30T23:29:41.985Z,3.00
2022-11-30T23:32:15.712Z,2.96
2022-11-30T23:34:50.808Z,2.97
2022-11-30T23:37:23.612Z,2.96
2022-11-30T23:39:55.985Z,2.93
2022-11-30T23:42:28.508Z,2.92
2022-11-30T23:45:01.171Z,2.91
2022-11-30T23:47:33.772Z,2.91
2022-11-30T23:50:07.822Z,2.84
2022-11-30T23:52:40.291Z,2.80
2022-11-30T23:55:12.133Z,2.78
2022-11-30T23:57:44.737Z,2.77
